sensor_id;sensor_type;location;lat;lon;timestamp;temperature;humidity
4596;DHT22;2310;49.978;8.742;2023-06-05T00:01:22;18.50;41.20
4596;DHT22;2310;49.978;8.742;2023-06-05T00:05:24;18.30;41.10
4596;DHT22;2310;49.978;8.742;2023-06-05T00:09:31;18.30;41.30
4596;DHT22;2310;49.978;8.742;2023-06-05T00:13:33;18.30;41.30
4596;DHT22;2310;49.978;8.742;2023-06-05T00:17:35;18.20;41.60
4596;DHT22;2310;49.978;8.742;2023-06-05T00:21:38;18.30;41.60
4596;DHT22;2310;49.978;8.742;2023-06-05T00:25:40;18.10;41.20
4596;DHT22;2310;49.978;8.742;2023-06-05T00:29:41;17.90;41.30
4596;DHT22;2310;49.978;8.742;2023-06-05T00:33:43;17.80;41.50
4596;DHT22;2310;49.978;8.742;2023-06-05T00:37:44;17.70;41.80
4596;DHT22;2310;49.978;8.742;2023-06-05T00:41:47;17.70;41.90
4596;DHT22;2310;49.978;8.742;2023-06-05T00:45:50;17.60;42.00
4596;DHT22;2310;49.978;8.742;2023-06-05T00:49:54;17.60;42.20
4596;DHT22;2310;49.978;8.742;2023-06-05T00:53:57;17.50;42.30
4596;DHT22;2310;49.978;8.742;2023-06-05T00:58:00;17.40;42.10
4596;DHT22;2310;49.978;8.742;2023-06-05T01:02:03;17.40;42.00
4596;DHT22;2310;49.978;8.742;2023-06-05T01:06:05;17.30;42.10
4596;DHT22;2310;49.978;8.742;2023-06-05T01:10:07;17.20;41.90
4596;DHT22;2310;49.978;8.742;2023-06-05T01:14:21;17.20;42.00
4596;DHT22;2310;49.978;8.742;2023-06-05T01:18:19;17.00;41.90
4596;DHT22;2310;49.978;8.742;2023-06-05T01:22:20;17.00;42.10
4596;DHT22;2310;49.978;8.742;2023-06-05T01:26:26;17.10;42.20
4596;DHT22;2310;49.978;8.742;2023-06-05T01:30:36;17.00;42.10
4596;DHT22;2310;49.978;8.742;2023-06-05T01:34:35;16.80;42.30
4596;DHT22;2310;49.978;8.742;2023-06-05T01:38:39;16.80;42.50
4596;DHT22;2310;49.978;8.742;2023-06-05T01:42:41;16.90;42.80
4596;DHT22;2310;49.978;8.742;2023-06-05T01:46:43;16.90;42.60
4596;DHT22;2310;49.978;8.742;2023-06-05T01:50:45;16.70;42.70
4596;DHT22;2310;49.978;8.742;2023-06-05T01:54:47;16.60;43.30
4596;DHT22;2310;49.978;8.742;2023-06-05T01:58:50;16.50;43.70
4596;DHT22;2310;49.978;8.742;2023-06-05T02:02:53;16.40;44.10
4596;DHT22;2310;49.978;8.742;2023-06-05T02:06:55;16.30;44.30
4596;DHT22;2310;49.978;8.742;2023-06-05T02:10:56;16.40;44.50
4596;DHT22;2310;49.978;8.742;2023-06-05T02:14:58;16.50;44.50
4596;DHT22;2310;49.978;8.742;2023-06-05T02:18:59;16.40;44.60
4596;DHT22;2310;49.978;8.742;2023-06-05T02:23:03;16.40;44.70
4596;DHT22;2310;49.978;8.742;2023-06-05T02:27:05;16.30;44.90
4596;DHT22;2310;49.978;8.742;2023-06-05T02:31:09;16.30;45.00
4596;DHT22;2310;49.978;8.742;2023-06-05T02:35:12;16.30;45.30
4596;DHT22;2310;49.978;8.742;2023-06-05T02:39:13;16.40;45.30
4596;DHT22;2310;49.978;8.742;2023-06-05T02:43:16;16.30;45.30
4596;DHT22;2310;49.978;8.742;2023-06-05T02:47:18;16.40;45.50
4596;DHT22;2310;49.978;8.742;2023-06-05T02:51:19;16.20;45.80
4596;DHT22;2310;49.978;8.742;2023-06-05T02:55:21;16.20;46.10
4596;DHT22;2310;49.978;8.742;2023-06-05T02:59:22;16.10;46.30
4596;DHT22;2310;49.978;8.742;2023-06-05T03:03:25;16.20;47.20
4596;DHT22;2310;49.978;8.742;2023-06-05T03:07:29;16.10;46.70
4596;DHT22;2310;49.978;8.742;2023-06-05T03:11:30;16.00;47.20
4596;DHT22;2310;49.978;8.742;2023-06-05T03:15:32;15.90;47.30
4596;DHT22;2310;49.978;8.742;2023-06-05T03:19:33;15.90;47.80
4596;DHT22;2310;49.978;8.742;2023-06-05T03:23:34;15.80;48.00
4596;DHT22;2310;49.978;8.742;2023-06-05T03:27:36;15.60;48.50
4596;DHT22;2310;49.978;8.742;2023-06-05T03:31:37;15.70;48.70
4596;DHT22;2310;49.978;8.742;2023-06-05T03:35:39;15.80;49.00
4596;DHT22;2310;49.978;8.742;2023-06-05T03:39:41;15.60;49.50
4596;DHT22;2310;49.978;8.742;2023-06-05T03:43:42;15.70;50.00
4596;DHT22;2310;49.978;8.742;2023-06-05T03:47:43;15.70;50.10
4596;DHT22;2310;49.978;8.742;2023-06-05T03:51:45;15.70;50.70
4596;DHT22;2310;49.978;8.742;2023-06-05T03:55:47;15.40;51.20
4596;DHT22;2310;49.978;8.742;2023-06-05T03:59:50;15.30;52.20
4596;DHT22;2310;49.978;8.742;2023-06-05T04:03:51;15.60;52.40
4596;DHT22;2310;49.978;8.742;2023-06-05T04:07:53;15.50;52.60
4596;DHT22;2310;49.978;8.742;2023-06-05T04:11:54;15.60;53.10
4596;DHT22;2310;49.978;8.742;2023-06-05T04:15:55;15.60;53.40
4596;DHT22;2310;49.978;8.742;2023-06-05T04:19:58;15.60;53.90
4596;DHT22;2310;49.978;8.742;2023-06-05T04:23:59;15.80;54.70
4596;DHT22;2310;49.978;8.742;2023-06-05T04:28:01;15.80;54.50
4596;DHT22;2310;49.978;8.742;2023-06-05T04:32:02;16.00;54.70
4596;DHT22;2310;49.978;8.742;2023-06-05T04:36:03;16.40;53.50
4596;DHT22;2310;49.978;8.742;2023-06-05T04:40:06;16.70;52.40
4596;DHT22;2310;49.978;8.742;2023-06-05T04:44:11;17.10;52.40
4596;DHT22;2310;49.978;8.742;2023-06-05T04:48:13;17.60;50.50
4596;DHT22;2310;49.978;8.742;2023-06-05T04:52:16;18.20;49.60
4596;DHT22;2310;49.978;8.742;2023-06-05T04:56:17;18.60;48.70
4596;DHT22;2310;49.978;8.742;2023-06-05T05:00:19;18.70;47.80
4596;DHT22;2310;49.978;8.742;2023-06-05T05:04:20;18.70;48.40
4596;DHT22;2310;49.978;8.742;2023-06-05T05:08:21;18.90;48.50
4596;DHT22;2310;49.978;8.742;2023-06-05T05:12:23;19.00;47.90
4596;DHT22;2310;49.978;8.742;2023-06-05T05:16:24;19.40;47.70
4596;DHT22;2310;49.978;8.742;2023-06-05T05:20:26;19.60;47.00
4596;DHT22;2310;49.978;8.742;2023-06-05T05:24:27;19.80;47.10
4596;DHT22;2310;49.978;8.742;2023-06-05T05:28:29;20.10;45.90
4596;DHT22;2310;49.978;8.742;2023-06-05T05:32:30;20.40;45.40
4596;DHT22;2310;49.978;8.742;2023-06-05T05:36:31;20.30;45.00
4596;DHT22;2310;49.978;8.742;2023-06-05T05:40:37;20.40;45.50
4596;DHT22;2310;49.978;8.742;2023-06-05T05:44:38;20.20;45.10
4596;DHT22;2310;49.978;8.742;2023-06-05T05:48:41;19.90;45.20
4596;DHT22;2310;49.978;8.742;2023-06-05T05:52:42;20.10;46.30
4596;DHT22;2310;49.978;8.742;2023-06-05T05:56:45;20.10;45.40
4596;DHT22;2310;49.978;8.742;2023-06-05T06:00:48;20.10;45.50
4596;DHT22;2310;49.978;8.742;2023-06-05T06:04:49;19.90;45.50
4596;DHT22;2310;49.978;8.742;2023-06-05T06:08:51;19.60;45.50
4596;DHT22;2310;49.978;8.742;2023-06-05T06:12:53;19.50;45.60
4596;DHT22;2310;49.978;8.742;2023-06-05T06:16:54;19.70;46.50
4596;DHT22;2310;49.978;8.742;2023-06-05T06:20:56;19.90;46.60
4596;DHT22;2310;49.978;8.742;2023-06-05T06:24:59;20.10;47.20
4596;DHT22;2310;49.978;8.742;2023-06-05T06:29:01;20.00;46.40
4596;DHT22;2310;49.978;8.742;2023-06-05T06:33:02;20.10;46.80
4596;DHT22;2310;49.978;8.742;2023-06-05T06:37:05;20.20;46.30
4596;DHT22;2310;49.978;8.742;2023-06-05T06:41:07;20.30;46.40
4596;DHT22;2310;49.978;8.742;2023-06-05T06:45:09;20.20;47.60
4596;DHT22;2310;49.978;8.742;2023-06-05T06:49:11;20.60;47.90
4596;DHT22;2310;49.978;8.742;2023-06-05T06:53:12;20.90;46.60
4596;DHT22;2310;49.978;8.742;2023-06-05T06:57:14;20.90;45.50
4596;DHT22;2310;49.978;8.742;2023-06-05T07:01:15;20.90;45.50
4596;DHT22;2310;49.978;8.742;2023-06-05T07:05:17;21.10;45.80
4596;DHT22;2310;49.978;8.742;2023-06-05T07:09:22;21.10;44.50
4596;DHT22;2310;49.978;8.742;2023-06-05T07:13:24;21.00;45.10
4596;DHT22;2310;49.978;8.742;2023-06-05T07:17:25;20.90;45.80
4596;DHT22;2310;49.978;8.742;2023-06-05T07:21:28;20.80;45.00
4596;DHT22;2310;49.978;8.742;2023-06-05T07:25:29;20.80;44.70
4596;DHT22;2310;49.978;8.742;2023-06-05T07:29:31;20.80;44.60
4596;DHT22;2310;49.978;8.742;2023-06-05T07:33:33;20.90;45.00
4596;DHT22;2310;49.978;8.742;2023-06-05T07:37:35;21.40;45.20
4596;DHT22;2310;49.978;8.742;2023-06-05T07:41:36;21.90;44.90
4596;DHT22;2310;49.978;8.742;2023-06-05T07:45:39;22.00;44.10
4596;DHT22;2310;49.978;8.742;2023-06-05T07:49:40;22.00;43.20
4596;DHT22;2310;49.978;8.742;2023-06-05T07:53:43;22.10;43.90
4596;DHT22;2310;49.978;8.742;2023-06-05T07:57:45;22.30;44.40
4596;DHT22;2310;49.978;8.742;2023-06-05T08:01:46;22.40;44.00
4596;DHT22;2310;49.978;8.742;2023-06-05T08:05:49;22.40;43.80
4596;DHT22;2310;49.978;8.742;2023-06-05T08:09:51;22.30;43.30
4596;DHT22;2310;49.978;8.742;2023-06-05T08:13:52;22.50;42.80
4596;DHT22;2310;49.978;8.742;2023-06-05T08:17:54;22.50;43.80
4596;DHT22;2310;49.978;8.742;2023-06-05T08:21:55;22.90;43.80
4596;DHT22;2310;49.978;8.742;2023-06-05T08:25:57;23.30;42.80
4596;DHT22;2310;49.978;8.742;2023-06-05T08:29:58;23.60;42.40
4596;DHT22;2310;49.978;8.742;2023-06-05T08:34:00;24.10;42.50
4596;DHT22;2310;49.978;8.742;2023-06-05T08:38:02;23.90;42.70
4596;DHT22;2310;49.978;8.742;2023-06-05T08:42:04;24.50;42.70
4596;DHT22;2310;49.978;8.742;2023-06-05T08:46:08;24.90;41.70
4596;DHT22;2310;49.978;8.742;2023-06-05T08:50:10;25.20;41.00
4596;DHT22;2310;49.978;8.742;2023-06-05T08:54:12;25.70;40.90
4596;DHT22;2310;49.978;8.742;2023-06-05T08:58:15;25.50;39.80
4596;DHT22;2310;49.978;8.742;2023-06-05T09:02:16;26.00;41.00
4596;DHT22;2310;49.978;8.742;2023-06-05T09:06:17;26.20;40.20
4596;DHT22;2310;49.978;8.742;2023-06-05T09:14:26;27.20;38.00
4596;DHT22;2310;49.978;8.742;2023-06-05T09:18:27;27.10;37.40
4596;DHT22;2310;49.978;8.742;2023-06-05T09:22:33;27.80;37.10
4596;DHT22;2310;49.978;8.742;2023-06-05T09:26:59;28.10;35.60
4596;DHT22;2310;49.978;8.742;2023-06-05T09:31:02;27.70;35.00
4596;DHT22;2310;49.978;8.742;2023-06-05T09:35:04;27.80;36.60
4596;DHT22;2310;49.978;8.742;2023-06-05T09:39:17;27.30;34.30
4596;DHT22;2310;49.978;8.742;2023-06-05T09:43:23;27.70;36.40
4596;DHT22;2310;49.978;8.742;2023-06-05T09:47:24;27.80;34.70
4596;DHT22;2310;49.978;8.742;2023-06-05T09:51:26;28.20;36.20
4596;DHT22;2310;49.978;8.742;2023-06-05T09:55:28;28.60;35.20
4596;DHT22;2310;49.978;8.742;2023-06-05T09:59:31;29.50;35.00
4596;DHT22;2310;49.978;8.742;2023-06-05T10:03:33;30.10;34.70
4596;DHT22;2310;49.978;8.742;2023-06-05T10:07:37;30.10;33.20
4596;DHT22;2310;49.978;8.742;2023-06-05T10:11:41;29.30;31.80
4596;DHT22;2310;49.978;8.742;2023-06-05T10:15:42;29.20;31.90
4596;DHT22;2310;49.978;8.742;2023-06-05T10:19:46;28.70;31.70
4596;DHT22;2310;49.978;8.742;2023-06-05T10:23:49;28.70;32.50
4596;DHT22;2310;49.978;8.742;2023-06-05T10:28:01;28.90;33.20
4596;DHT22;2310;49.978;8.742;2023-06-05T10:32:02;29.70;32.80
4596;DHT22;2310;49.978;8.742;2023-06-05T10:40:22;29.40;31.20
4596;DHT22;2310;49.978;8.742;2023-06-05T10:44:41;29.70;29.60
4596;DHT22;2310;49.978;8.742;2023-06-05T10:53:41;29.70;28.50
4596;DHT22;2310;49.978;8.742;2023-06-05T10:58:06;29.70;29.20
4596;DHT22;2310;49.978;8.742;2023-06-05T11:06:17;30.60;30.70
4596;DHT22;2310;49.978;8.742;2023-06-05T11:10:18;30.40;28.90
4596;DHT22;2310;49.978;8.742;2023-06-05T11:14:45;30.70;29.10
4596;DHT22;2310;49.978;8.742;2023-06-05T11:18:32;30.50;28.20
4596;DHT22;2310;49.978;8.742;2023-06-05T11:27:03;30.90;28.10
4596;DHT22;2310;49.978;8.742;2023-06-05T11:31:04;31.40;28.20
4596;DHT22;2310;49.978;8.742;2023-06-05T11:35:07;31.00;28.50
4596;DHT22;2310;49.978;8.742;2023-06-05T11:39:12;30.90;28.40
4596;DHT22;2310;49.978;8.742;2023-06-05T11:43:14;30.10;28.50
4596;DHT22;2310;49.978;8.742;2023-06-05T11:47:27;30.00;28.90
4596;DHT22;2310;49.978;8.742;2023-06-05T11:51:35;29.90;28.90
4596;DHT22;2310;49.978;8.742;2023-06-05T11:55:37;30.30;30.00
4596;DHT22;2310;49.978;8.742;2023-06-05T11:59:52;30.90;28.90
4596;DHT22;2310;49.978;8.742;2023-06-05T12:04:02;31.10;28.60
4596;DHT22;2310;49.978;8.742;2023-06-05T12:08:32;31.10;28.70
4596;DHT22;2310;49.978;8.742;2023-06-05T12:12:31;30.90;28.90
4596;DHT22;2310;49.978;8.742;2023-06-05T12:20:40;29.60;29.00
4596;DHT22;2310;49.978;8.742;2023-06-05T12:24:41;29.80;29.30
4596;DHT22;2310;49.978;8.742;2023-06-05T12:28:44;30.20;28.90
4596;DHT22;2310;49.978;8.742;2023-06-05T12:32:47;30.50;26.50
4596;DHT22;2310;49.978;8.742;2023-06-05T12:36:49;30.80;26.20
4596;DHT22;2310;49.978;8.742;2023-06-05T12:40:51;30.80;27.20
4596;DHT22;2310;49.978;8.742;2023-06-05T12:44:55;30.30;27.10
4596;DHT22;2310;49.978;8.742;2023-06-05T12:48:58;29.40;27.70
4596;DHT22;2310;49.978;8.742;2023-06-05T12:52:59;29.70;28.30
4596;DHT22;2310;49.978;8.742;2023-06-05T12:57:04;30.50;28.40
4596;DHT22;2310;49.978;8.742;2023-06-05T13:01:10;30.30;26.90
4596;DHT22;2310;49.978;8.742;2023-06-05T13:05:16;29.80;27.90
4596;DHT22;2310;49.978;8.742;2023-06-05T13:09:17;30.70;28.60
4596;DHT22;2310;49.978;8.742;2023-06-05T13:13:19;30.90;28.30
4596;DHT22;2310;49.978;8.742;2023-06-05T13:17:21;31.20;27.60
4596;DHT22;2310;49.978;8.742;2023-06-05T13:21:24;30.70;27.50
4596;DHT22;2310;49.978;8.742;2023-06-05T13:25:26;30.30;27.40
4596;DHT22;2310;49.978;8.742;2023-06-05T13:29:27;30.20;28.10
4596;DHT22;2310;49.978;8.742;2023-06-05T13:33:28;30.40;28.00
4596;DHT22;2310;49.978;8.742;2023-06-05T13:37:31;30.60;27.50
4596;DHT22;2310;49.978;8.742;2023-06-05T13:41:32;30.00;27.60
4596;DHT22;2310;49.978;8.742;2023-06-05T13:45:33;30.20;27.70
4596;DHT22;2310;49.978;8.742;2023-06-05T13:49:34;30.40;27.80
4596;DHT22;2310;49.978;8.742;2023-06-05T13:53:36;30.70;27.50
4596;DHT22;2310;49.978;8.742;2023-06-05T13:57:37;30.80;27.90
4596;DHT22;2310;49.978;8.742;2023-06-05T14:01:38;30.80;27.90
4596;DHT22;2310;49.978;8.742;2023-06-05T14:05:41;30.40;28.10
4596;DHT22;2310;49.978;8.742;2023-06-05T14:09:42;30.40;27.70
4596;DHT22;2310;49.978;8.742;2023-06-05T14:13:44;30.50;27.70
4596;DHT22;2310;49.978;8.742;2023-06-05T14:17:50;30.20;27.90
4596;DHT22;2310;49.978;8.742;2023-06-05T14:21:51;30.10;28.40
4596;DHT22;2310;49.978;8.742;2023-06-05T14:25:52;29.90;28.60
4596;DHT22;2310;49.978;8.742;2023-06-05T14:29:54;29.80;28.90
4596;DHT22;2310;49.978;8.742;2023-06-05T14:33:56;30.00;28.50
4596;DHT22;2310;49.978;8.742;2023-06-05T14:37:57;29.80;28.20
4596;DHT22;2310;49.978;8.742;2023-06-05T14:41:58;29.30;29.00
4596;DHT22;2310;49.978;8.742;2023-06-05T14:45:59;29.30;28.90
4596;DHT22;2310;49.978;8.742;2023-06-05T14:50:04;29.60;29.40
4596;DHT22;2310;49.978;8.742;2023-06-05T14:54:05;29.60;28.80
4596;DHT22;2310;49.978;8.742;2023-06-05T14:58:07;29.80;28.30
4596;DHT22;2310;49.978;8.742;2023-06-05T15:02:10;29.30;28.90
4596;DHT22;2310;49.978;8.742;2023-06-05T15:06:13;29.40;29.40
4596;DHT22;2310;49.978;8.742;2023-06-05T15:10:17;29.30;29.50
4596;DHT22;2310;49.978;8.742;2023-06-05T15:14:19;29.40;28.70
4596;DHT22;2310;49.978;8.742;2023-06-05T15:18:20;29.30;28.50
4596;DHT22;2310;49.978;8.742;2023-06-05T15:22:21;29.50;28.80
4596;DHT22;2310;49.978;8.742;2023-06-05T15:26:23;29.40;28.80
4596;DHT22;2310;49.978;8.742;2023-06-05T15:30:25;29.40;28.80
4596;DHT22;2310;49.978;8.742;2023-06-05T15:34:26;29.00;29.20
4596;DHT22;2310;49.978;8.742;2023-06-05T15:38:27;28.80;28.70
4596;DHT22;2310;49.978;8.742;2023-06-05T15:42:34;28.80;28.40
4596;DHT22;2310;49.978;8.742;2023-06-05T15:46:36;28.70;28.80
4596;DHT22;2310;49.978;8.742;2023-06-05T15:50:37;28.70;29.10
4596;DHT22;2310;49.978;8.742;2023-06-05T15:54:40;28.60;28.80
4596;DHT22;2310;49.978;8.742;2023-06-05T15:58:43;28.70;28.90
4596;DHT22;2310;49.978;8.742;2023-06-05T16:02:45;28.70;29.00
4596;DHT22;2310;49.978;8.742;2023-06-05T16:06:46;28.50;28.90
4596;DHT22;2310;49.978;8.742;2023-06-05T16:10:49;28.50;28.40
4596;DHT22;2310;49.978;8.742;2023-06-05T16:14:52;28.50;29.30
4596;DHT22;2310;49.978;8.742;2023-06-05T16:18:54;28.50;29.30
4596;DHT22;2310;49.978;8.742;2023-06-05T16:22:55;28.30;29.00
4596;DHT22;2310;49.978;8.742;2023-06-05T16:26:56;28.00;29.90
4596;DHT22;2310;49.978;8.742;2023-06-05T16:30:57;27.90;29.40
4596;DHT22;2310;49.978;8.742;2023-06-05T16:34:59;27.80;29.60
4596;DHT22;2310;49.978;8.742;2023-06-05T16:39:00;27.70;29.40
4596;DHT22;2310;49.978;8.742;2023-06-05T16:43:01;27.80;29.40
4596;DHT22;2310;49.978;8.742;2023-06-05T16:47:03;27.80;29.30
4596;DHT22;2310;49.978;8.742;2023-06-05T16:51:05;27.90;29.00
4596;DHT22;2310;49.978;8.742;2023-06-05T16:55:06;27.70;29.50
4596;DHT22;2310;49.978;8.742;2023-06-05T16:59:12;27.80;29.40
4596;DHT22;2310;49.978;8.742;2023-06-05T17:03:13;27.70;29.50
4596;DHT22;2310;49.978;8.742;2023-06-05T17:07:15;27.70;29.80
4596;DHT22;2310;49.978;8.742;2023-06-05T17:11:16;27.60;29.80
4596;DHT22;2310;49.978;8.742;2023-06-05T17:15:17;27.50;30.00
4596;DHT22;2310;49.978;8.742;2023-06-05T17:19:19;27.60;31.20
4596;DHT22;2310;49.978;8.742;2023-06-05T17:23:20;27.30;30.00
4596;DHT22;2310;49.978;8.742;2023-06-05T17:27:22;27.00;30.60
4596;DHT22;2310;49.978;8.742;2023-06-05T17:31:27;27.00;31.20
4596;DHT22;2310;49.978;8.742;2023-06-05T17:35:29;26.80;30.80
4596;DHT22;2310;49.978;8.742;2023-06-05T17:39:30;26.60;31.00
4596;DHT22;2310;49.978;8.742;2023-06-05T17:43:31;26.60;31.40
4596;DHT22;2310;49.978;8.742;2023-06-05T17:47:33;26.60;30.80
4596;DHT22;2310;49.978;8.742;2023-06-05T17:51:35;26.50;31.00
4596;DHT22;2310;49.978;8.742;2023-06-05T17:55:36;26.30;31.40
4596;DHT22;2310;49.978;8.742;2023-06-05T17:59:38;26.10;31.20
4596;DHT22;2310;49.978;8.742;2023-06-05T18:03:39;25.80;31.30
4596;DHT22;2310;49.978;8.742;2023-06-05T18:07:42;25.70;31.30
4596;DHT22;2310;49.978;8.742;2023-06-05T18:11:43;25.70;31.30
4596;DHT22;2310;49.978;8.742;2023-06-05T18:15:45;25.60;31.40
4596;DHT22;2310;49.978;8.742;2023-06-05T18:19:46;25.50;31.50
4596;DHT22;2310;49.978;8.742;2023-06-05T18:23:47;25.50;31.70
4596;DHT22;2310;49.978;8.742;2023-06-05T18:27:48;25.40;31.80
4596;DHT22;2310;49.978;8.742;2023-06-05T18:31:51;25.30;31.90
4596;DHT22;2310;49.978;8.742;2023-06-05T18:35:53;25.20;32.00
4596;DHT22;2310;49.978;8.742;2023-06-05T18:39:54;25.20;32.40
4596;DHT22;2310;49.978;8.742;2023-06-05T18:43:56;25.00;32.60
4596;DHT22;2310;49.978;8.742;2023-06-05T18:47:57;24.80;32.90
4596;DHT22;2310;49.978;8.742;2023-06-05T18:51:58;24.60;33.10
4596;DHT22;2310;49.978;8.742;2023-06-05T18:56:00;24.70;33.30
4596;DHT22;2310;49.978;8.742;2023-06-05T19:00:02;24.50;33.40
4596;DHT22;2310;49.978;8.742;2023-06-05T19:04:03;24.50;33.90
4596;DHT22;2310;49.978;8.742;2023-06-05T19:08:07;24.60;34.00
4596;DHT22;2310;49.978;8.742;2023-06-05T19:12:08;24.40;34.00
4596;DHT22;2310;49.978;8.742;2023-06-05T19:16:09;24.30;34.50
4596;DHT22;2310;49.978;8.742;2023-06-05T19:20:11;24.10;34.60
4596;DHT22;2310;49.978;8.742;2023-06-05T19:24:13;24.00;34.90
4596;DHT22;2310;49.978;8.742;2023-06-05T19:28:14;23.90;35.40
4596;DHT22;2310;49.978;8.742;2023-06-05T19:32:16;23.80;36.00
4596;DHT22;2310;49.978;8.742;2023-06-05T19:36:17;23.60;36.40
4596;DHT22;2310;49.978;8.742;2023-06-05T19:40:18;23.80;37.50
4596;DHT22;2310;49.978;8.742;2023-06-05T19:44:19;24.00;37.30
4596;DHT22;2310;49.978;8.742;2023-06-05T19:48:21;24.00;37.30
4596;DHT22;2310;49.978;8.742;2023-06-05T19:52:22;24.10;38.10
4596;DHT22;2310;49.978;8.742;2023-06-05T19:56:23;24.00;37.70
4596;DHT22;2310;49.978;8.742;2023-06-05T20:00:25;24.10;37.90
4596;DHT22;2310;49.978;8.742;2023-06-05T20:04:26;24.20;38.00
4596;DHT22;2310;49.978;8.742;2023-06-05T20:08:28;24.00;38.20
4596;DHT22;2310;49.978;8.742;2023-06-05T20:12:31;24.00;38.50
4596;DHT22;2310;49.978;8.742;2023-06-05T20:16:32;23.90;39.00
4596;DHT22;2310;49.978;8.742;2023-06-05T20:20:33;23.90;39.10
4596;DHT22;2310;49.978;8.742;2023-06-05T20:24:35;23.60;39.70
4596;DHT22;2310;49.978;8.742;2023-06-05T20:28:38;23.40;40.30
4596;DHT22;2310;49.978;8.742;2023-06-05T20:32:39;23.20;40.50
4596;DHT22;2310;49.978;8.742;2023-06-05T20:36:41;23.00;41.10
4596;DHT22;2310;49.978;8.742;2023-06-05T20:40:43;22.90;41.50
4596;DHT22;2310;49.978;8.742;2023-06-05T20:44:44;22.80;41.80
4596;DHT22;2310;49.978;8.742;2023-06-05T20:48:49;22.90;42.10
4596;DHT22;2310;49.978;8.742;2023-06-05T20:52:54;22.80;42.40
4596;DHT22;2310;49.978;8.742;2023-06-05T20:57:06;22.60;42.70
4596;DHT22;2310;49.978;8.742;2023-06-05T21:01:01;22.70;43.10
4596;DHT22;2310;49.978;8.742;2023-06-05T21:05:02;22.80;43.00
4596;DHT22;2310;49.978;8.742;2023-06-05T21:09:06;22.70;43.00
4596;DHT22;2310;49.978;8.742;2023-06-05T21:13:08;22.60;43.90
4596;DHT22;2310;49.978;8.742;2023-06-05T21:17:09;22.70;43.70
4596;DHT22;2310;49.978;8.742;2023-06-05T21:21:10;22.80;43.80
4596;DHT22;2310;49.978;8.742;2023-06-05T21:25:12;22.60;44.00
4596;DHT22;2310;49.978;8.742;2023-06-05T21:29:13;22.90;44.20
4596;DHT22;2310;49.978;8.742;2023-06-05T21:33:14;22.50;44.40
4596;DHT22;2310;49.978;8.742;2023-06-05T21:37:16;22.30;45.20
4596;DHT22;2310;49.978;8.742;2023-06-05T21:41:19;22.40;45.30
4596;DHT22;2310;49.978;8.742;2023-06-05T21:45:21;22.10;45.80
4596;DHT22;2310;49.978;8.742;2023-06-05T21:49:22;21.80;46.80
4596;DHT22;2310;49.978;8.742;2023-06-05T21:53:24;21.60;47.60
4596;DHT22;2310;49.978;8.742;2023-06-05T21:57:25;21.50;48.30
4596;DHT22;2310;49.978;8.742;2023-06-05T22:01:27;21.40;48.80
4596;DHT22;2310;49.978;8.742;2023-06-05T22:05:31;21.20;50.10
4596;DHT22;2310;49.978;8.742;2023-06-05T22:09:32;21.20;51.80
4596;DHT22;2310;49.978;8.742;2023-06-05T22:13:35;21.10;53.80
4596;DHT22;2310;49.978;8.742;2023-06-05T22:17:38;21.10;55.60
4596;DHT22;2310;49.978;8.742;2023-06-05T22:21:40;21.20;57.40
4596;DHT22;2310;49.978;8.742;2023-06-05T22:25:42;21.20;59.50
4596;DHT22;2310;49.978;8.742;2023-06-05T22:29:45;21.20;60.60
4596;DHT22;2310;49.978;8.742;2023-06-05T22:33:47;21.20;62.60
4596;DHT22;2310;49.978;8.742;2023-06-05T22:37:51;21.20;64.00
4596;DHT22;2310;49.978;8.742;2023-06-05T22:41:53;21.30;65.50
4596;DHT22;2310;49.978;8.742;2023-06-05T22:45:54;21.40;66.80
4596;DHT22;2310;49.978;8.742;2023-06-05T22:49:56;21.40;67.80
4596;DHT22;2310;49.978;8.742;2023-06-05T22:54:00;21.30;69.50
4596;DHT22;2310;49.978;8.742;2023-06-05T22:58:01;21.30;74.00
4596;DHT22;2310;49.978;8.742;2023-06-05T23:02:02;21.30;73.80
4596;DHT22;2310;49.978;8.742;2023-06-05T23:06:04;21.20;76.90
4596;DHT22;2310;49.978;8.742;2023-06-05T23:10:06;21.20;79.10
4596;DHT22;2310;49.978;8.742;2023-06-05T23:14:07;21.00;83.60
4596;DHT22;2310;49.978;8.742;2023-06-05T23:18:10;21.00;87.50
4596;DHT22;2310;49.978;8.742;2023-06-05T23:22:11;21.00;89.60
4596;DHT22;2310;49.978;8.742;2023-06-05T23:26:13;20.80;92.10
4596;DHT22;2310;49.978;8.742;2023-06-05T23:30:14;20.90;93.10
4596;DHT22;2310;49.978;8.742;2023-06-05T23:34:17;20.80;94.70
4596;DHT22;2310;49.978;8.742;2023-06-05T23:38:18;20.80;96.00
4596;DHT22;2310;49.978;8.742;2023-06-05T23:42:19;20.60;97.70
4596;DHT22;2310;49.978;8.742;2023-06-05T23:46:22;20.60;98.60
4596;DHT22;2310;49.978;8.742;2023-06-05T23:50:24;20.60;98.80
4596;DHT22;2310;49.978;8.742;2023-06-05T23:54:26;20.40;99.90
4596;DHT22;2310;49.978;8.742;2023-06-05T23:58:27;20.20;99.90
